sensor_id;sensor_type;location;lat;lon;timestamp;P1;durP1;ratioP1;P2;durP2;ratioP2
13185;SDS011;6658;53.080;7.428;2023-02-28T00:01:22;4.77;;;3.00;;
13185;SDS011;6658;53.080;7.428;2023-02-28T00:03:48;3.87;;;2.73;;
13185;SDS011;6658;53.080;7.428;2023-02-28T00:06:14;4.10;;;2.27;;
13185;SDS011;6658;53.080;7.428;2023-02-28T00:08:40;3.50;;;2.73;;
13185;SDS011;6658;53.080;7.428;2023-02-28T00:11:06;4.80;;;2.73;;
13185;SDS011;6658;53.080;7.428;2023-02-28T00:13:38;2.80;;;2.47;;
13185;SDS011;6658;53.080;7.428;2023-02-28T00:16:06;4.03;;;2.60;;
13185;SDS011;6658;53.080;7.428;2023-02-28T00:18:34;3.77;;;2.40;;
13185;SDS011;6658;53.080;7.428;2023-02-28T00:21:00;4.93;;;2.60;;
13185;SDS011;6658;53.080;7.428;2023-02-28T00:23:26;2.67;;;2.13;;
13185;SDS011;6658;53.080;7.428;2023-02-28T00:25:53;4.03;;;2.70;;
13185;SDS011;6658;53.080;7.428;2023-02-28T00:28:19;4.10;;;2.77;;
13185;SDS011;6658;53.080;7.428;2023-02-28T00:30:45;4.70;;;2.97;;
13185;SDS011;6658;53.080;7.428;2023-02-28T00:33:11;5.80;;;2.77;;
13185;SDS011;6658;53.080;7.428;2023-02-28T00:35:37;2.80;;;2.40;;
13185;SDS011;6658;53.080;7.428;2023-02-28T00:38:03;4.07;;;2.77;;
13185;SDS011;6658;53.080;7.428;2023-02-28T00:40:29;3.37;;;2.70;;
13185;SDS011;6658;53.080;7.428;2023-02-28T00:42:55;3.87;;;2.83;;
13185;SDS011;6658;53.080;7.428;2023-02-28T00:45:21;6.70;;;2.50;;
13185;SDS011;6658;53.080;7.428;2023-02-28T00:47:46;2.90;;;2.50;;
13185;SDS011;6658;53.080;7.428;2023-02-28T00:50:15;3.03;;;2.50;;
13185;SDS011;6658;53.080;7.428;2023-02-28T00:52:42;2.93;;;2.40;;
13185;SDS011;6658;53.080;7.428;2023-02-28T00:55:07;2.60;;;2.40;;
13185;SDS011;6658;53.080;7.428;2023-02-28T00:57:33;3.87;;;2.60;;
13185;SDS011;6658;53.080;7.428;2023-02-28T00:59:59;3.47;;;2.33;;
13185;SDS011;6658;53.080;7.428;2023-02-28T01:02:24;6.27;;;2.80;;
13185;SDS011;6658;53.080;7.428;2023-02-28T01:04:50;4.33;;;2.73;;
13185;SDS011;6658;53.080;7.428;2023-02-28T01:07:16;4.20;;;2.77;;
13185;SDS011;6658;53.080;7.428;2023-02-28T01:09:42;4.40;;;2.50;;
13185;SDS011;6658;53.080;7.428;2023-02-28T01:12:08;2.73;;;2.00;;
13185;SDS011;6658;53.080;7.428;2023-02-28T01:14:34;5.97;;;2.83;;
13185;SDS011;6658;53.080;7.428;2023-02-28T01:17:00;4.67;;;2.67;;
13185;SDS011;6658;53.080;7.428;2023-02-28T01:19:26;2.77;;;2.40;;
13185;SDS011;6658;53.080;7.428;2023-02-28T01:21:52;5.03;;;3.23;;
13185;SDS011;6658;53.080;7.428;2023-02-28T01:24:18;2.47;;;2.27;;
13185;SDS011;6658;53.080;7.428;2023-02-28T01:26:44;3.23;;;2.60;;
13185;SDS011;6658;53.080;7.428;2023-02-28T01:29:10;4.20;;;2.83;;
13185;SDS011;6658;53.080;7.428;2023-02-28T01:31:35;4.63;;;2.40;;
13185;SDS011;6658;53.080;7.428;2023-02-28T01:34:01;3.53;;;2.67;;
13185;SDS011;6658;53.080;7.428;2023-02-28T01:36:28;4.20;;;2.97;;
13185;SDS011;6658;53.080;7.428;2023-02-28T01:38:54;4.27;;;2.90;;
13185;SDS011;6658;53.080;7.428;2023-02-28T01:46:13;3.40;;;2.77;;
13185;SDS011;6658;53.080;7.428;2023-02-28T01:48:42;4.57;;;3.20;;
13185;SDS011;6658;53.080;7.428;2023-02-28T01:51:15;4.20;;;3.20;;
13185;SDS011;6658;53.080;7.428;2023-02-28T01:53:46;2.90;;;2.53;;
13185;SDS011;6658;53.080;7.428;2023-02-28T01:56:17;4.43;;;3.10;;
13185;SDS011;6658;53.080;7.428;2023-02-28T01:58:49;4.63;;;3.00;;
13185;SDS011;6658;53.080;7.428;2023-02-28T02:01:16;4.37;;;2.40;;
13185;SDS011;6658;53.080;7.428;2023-02-28T02:03:46;4.57;;;2.80;;
13185;SDS011;6658;53.080;7.428;2023-02-28T02:07:03;3.03;;;2.67;;
13185;SDS011;6658;53.080;7.428;2023-02-28T02:09:12;4.23;;;2.87;;
13185;SDS011;6658;53.080;7.428;2023-02-28T02:11:39;3.67;;;2.90;;
13185;SDS011;6658;53.080;7.428;2023-02-28T02:34:33;3.77;;;2.60;;
13185;SDS011;6658;53.080;7.428;2023-02-28T02:45:27;4.20;;;3.23;;
13185;SDS011;6658;53.080;7.428;2023-02-28T02:48:01;4.30;;;3.37;;
13185;SDS011;6658;53.080;7.428;2023-02-28T02:50:33;4.27;;;2.90;;
13185;SDS011;6658;53.080;7.428;2023-02-28T02:53:08;4.47;;;3.20;;
13185;SDS011;6658;53.080;7.428;2023-02-28T02:55:37;5.17;;;2.97;;
13185;SDS011;6658;53.080;7.428;2023-02-28T02:58:07;2.87;;;2.57;;
13185;SDS011;6658;53.080;7.428;2023-02-28T03:00:42;3.30;;;2.80;;
13185;SDS011;6658;53.080;7.428;2023-02-28T03:03:13;5.27;;;3.10;;
13185;SDS011;6658;53.080;7.428;2023-02-28T03:05:46;3.03;;;2.80;;
13185;SDS011;6658;53.080;7.428;2023-02-28T03:08:16;3.50;;;2.60;;
13185;SDS011;6658;53.080;7.428;2023-02-28T03:10:43;3.13;;;2.63;;
13185;SDS011;6658;53.080;7.428;2023-02-28T03:16:10;4.40;;;2.87;;
13185;SDS011;6658;53.080;7.428;2023-02-28T03:26:58;3.33;;;2.93;;
13185;SDS011;6658;53.080;7.428;2023-02-28T03:29:39;3.37;;;3.07;;
13185;SDS011;6658;53.080;7.428;2023-02-28T03:32:14;4.00;;;3.40;;
13185;SDS011;6658;53.080;7.428;2023-02-28T03:34:47;4.57;;;3.33;;
13185;SDS011;6658;53.080;7.428;2023-02-28T03:37:20;4.83;;;3.40;;
13185;SDS011;6658;53.080;7.428;2023-02-28T03:39:51;5.27;;;4.40;;
13185;SDS011;6658;53.080;7.428;2023-02-28T03:42:23;6.00;;;4.83;;
13185;SDS011;6658;53.080;7.428;2023-02-28T03:44:57;4.97;;;4.23;;
13185;SDS011;6658;53.080;7.428;2023-02-28T03:47:32;4.90;;;3.57;;
13185;SDS011;6658;53.080;7.428;2023-02-28T03:50:11;4.90;;;4.30;;
13185;SDS011;6658;53.080;7.428;2023-02-28T03:52:50;4.30;;;3.90;;
13185;SDS011;6658;53.080;7.428;2023-02-28T03:55:44;6.87;;;4.00;;
13185;SDS011;6658;53.080;7.428;2023-02-28T03:58:58;7.03;;;4.17;;
13185;SDS011;6658;53.080;7.428;2023-02-28T04:03:38;5.53;;;3.80;;
13185;SDS011;6658;53.080;7.428;2023-02-28T04:06:05;4.80;;;3.60;;
13185;SDS011;6658;53.080;7.428;2023-02-28T04:08:37;4.63;;;3.50;;
13185;SDS011;6658;53.080;7.428;2023-02-28T04:11:05;6.80;;;4.20;;
13185;SDS011;6658;53.080;7.428;2023-02-28T04:13:54;4.50;;;4.03;;
13185;SDS011;6658;53.080;7.428;2023-02-28T04:16:19;4.23;;;3.83;;
13185;SDS011;6658;53.080;7.428;2023-02-28T04:18:45;5.07;;;3.73;;
13185;SDS011;6658;53.080;7.428;2023-02-28T04:21:11;3.73;;;3.43;;
13185;SDS011;6658;53.080;7.428;2023-02-28T04:23:37;4.97;;;3.60;;
13185;SDS011;6658;53.080;7.428;2023-02-28T04:26:03;4.17;;;3.63;;
13185;SDS011;6658;53.080;7.428;2023-02-28T04:28:30;4.57;;;4.03;;
13185;SDS011;6658;53.080;7.428;2023-02-28T04:30:57;4.80;;;4.00;;
13185;SDS011;6658;53.080;7.428;2023-02-28T04:33:24;4.93;;;3.90;;
13185;SDS011;6658;53.080;7.428;2023-02-28T04:36:08;4.80;;;4.30;;
13185;SDS011;6658;53.080;7.428;2023-02-28T04:38:34;4.90;;;4.37;;
13185;SDS011;6658;53.080;7.428;2023-02-28T04:41:01;4.57;;;4.10;;
13185;SDS011;6658;53.080;7.428;2023-02-28T04:43:27;5.07;;;4.13;;
13185;SDS011;6658;53.080;7.428;2023-02-28T04:45:54;4.87;;;3.90;;
13185;SDS011;6658;53.080;7.428;2023-02-28T04:48:24;5.30;;;4.23;;
13185;SDS011;6658;53.080;7.428;2023-02-28T04:50:52;6.33;;;4.53;;
13185;SDS011;6658;53.080;7.428;2023-02-28T04:53:18;4.27;;;3.87;;
13185;SDS011;6658;53.080;7.428;2023-02-28T04:55:44;5.93;;;4.67;;
13185;SDS011;6658;53.080;7.428;2023-02-28T04:58:11;8.83;;;4.77;;
13185;SDS011;6658;53.080;7.428;2023-02-28T05:00:37;4.83;;;4.30;;
13185;SDS011;6658;53.080;7.428;2023-02-28T05:03:03;5.37;;;4.23;;
13185;SDS011;6658;53.080;7.428;2023-02-28T05:05:28;4.57;;;4.03;;
13185;SDS011;6658;53.080;7.428;2023-02-28T05:07:54;5.77;;;5.00;;
13185;SDS011;6658;53.080;7.428;2023-02-28T05:10:20;5.03;;;4.23;;
13185;SDS011;6658;53.080;7.428;2023-02-28T05:12:49;5.57;;;4.47;;
13185;SDS011;6658;53.080;7.428;2023-02-28T05:15:17;4.63;;;4.23;;
13185;SDS011;6658;53.080;7.428;2023-02-28T05:17:43;5.03;;;4.40;;
13185;SDS011;6658;53.080;7.428;2023-02-28T05:20:09;4.60;;;3.93;;
13185;SDS011;6658;53.080;7.428;2023-02-28T05:22:38;5.33;;;4.73;;
13185;SDS011;6658;53.080;7.428;2023-02-28T05:25:05;4.73;;;4.07;;
13185;SDS011;6658;53.080;7.428;2023-02-28T05:27:31;5.27;;;4.43;;
13185;SDS011;6658;53.080;7.428;2023-02-28T05:29:57;6.93;;;4.50;;
13185;SDS011;6658;53.080;7.428;2023-02-28T05:32:24;5.33;;;4.80;;
13185;SDS011;6658;53.080;7.428;2023-02-28T05:34:49;4.80;;;4.30;;
13185;SDS011;6658;53.080;7.428;2023-02-28T05:37:15;4.90;;;4.47;;
13185;SDS011;6658;53.080;7.428;2023-02-28T05:39:42;6.80;;;4.70;;
13185;SDS011;6658;53.080;7.428;2023-02-28T05:42:07;5.20;;;4.47;;
13185;SDS011;6658;53.080;7.428;2023-02-28T05:44:34;6.37;;;4.77;;
13185;SDS011;6658;53.080;7.428;2023-02-28T05:47:00;6.53;;;4.80;;
13185;SDS011;6658;53.080;7.428;2023-02-28T05:49:26;5.77;;;4.57;;
13185;SDS011;6658;53.080;7.428;2023-02-28T05:51:51;5.27;;;4.80;;
13185;SDS011;6658;53.080;7.428;2023-02-28T05:54:17;5.30;;;4.63;;
13185;SDS011;6658;53.080;7.428;2023-02-28T05:56:43;5.17;;;4.67;;
13185;SDS011;6658;53.080;7.428;2023-02-28T05:59:10;6.40;;;5.10;;
13185;SDS011;6658;53.080;7.428;2023-02-28T06:01:41;5.83;;;4.83;;
13185;SDS011;6658;53.080;7.428;2023-02-28T06:04:13;5.50;;;4.53;;
13185;SDS011;6658;53.080;7.428;2023-02-28T06:06:46;15.37;;;10.93;;
13185;SDS011;6658;53.080;7.428;2023-02-28T06:09:12;15.07;;;11.03;;
13185;SDS011;6658;53.080;7.428;2023-02-28T06:11:38;13.93;;;10.13;;
13185;SDS011;6658;53.080;7.428;2023-02-28T06:14:05;10.07;;;6.07;;
13185;SDS011;6658;53.080;7.428;2023-02-28T06:16:32;7.47;;;5.90;;
13185;SDS011;6658;53.080;7.428;2023-02-28T06:19:00;6.77;;;6.03;;
13185;SDS011;6658;53.080;7.428;2023-02-28T06:21:27;9.83;;;6.90;;
13185;SDS011;6658;53.080;7.428;2023-02-28T06:23:53;7.70;;;6.47;;
13185;SDS011;6658;53.080;7.428;2023-02-28T06:26:19;8.70;;;6.47;;
13185;SDS011;6658;53.080;7.428;2023-02-28T06:28:45;5.47;;;4.93;;
13185;SDS011;6658;53.080;7.428;2023-02-28T06:31:12;9.27;;;6.60;;
13185;SDS011;6658;53.080;7.428;2023-02-28T06:33:39;7.03;;;5.83;;
13185;SDS011;6658;53.080;7.428;2023-02-28T06:36:06;5.73;;;5.13;;
13185;SDS011;6658;53.080;7.428;2023-02-28T06:38:32;6.43;;;5.47;;
13185;SDS011;6658;53.080;7.428;2023-02-28T06:40:59;8.40;;;5.17;;
13185;SDS011;6658;53.080;7.428;2023-02-28T06:43:28;7.57;;;5.57;;
13185;SDS011;6658;53.080;7.428;2023-02-28T06:45:55;7.47;;;5.57;;
13185;SDS011;6658;53.080;7.428;2023-02-28T06:48:23;7.70;;;5.67;;
13185;SDS011;6658;53.080;7.428;2023-02-28T06:50:49;8.07;;;6.13;;
13185;SDS011;6658;53.080;7.428;2023-02-28T06:53:15;6.53;;;5.80;;
13185;SDS011;6658;53.080;7.428;2023-02-28T06:55:40;7.57;;;5.93;;
13185;SDS011;6658;53.080;7.428;2023-02-28T06:58:06;7.07;;;5.70;;
13185;SDS011;6658;53.080;7.428;2023-02-28T07:00:44;7.43;;;5.93;;
13185;SDS011;6658;53.080;7.428;2023-02-28T07:03:10;7.80;;;6.40;;
13185;SDS011;6658;53.080;7.428;2023-02-28T07:05:37;7.60;;;6.30;;
13185;SDS011;6658;53.080;7.428;2023-02-28T07:08:03;7.37;;;5.93;;
13185;SDS011;6658;53.080;7.428;2023-02-28T07:10:31;9.57;;;6.60;;
13185;SDS011;6658;53.080;7.428;2023-02-28T07:13:00;6.63;;;6.03;;
13185;SDS011;6658;53.080;7.428;2023-02-28T07:15:25;8.53;;;6.70;;
13185;SDS011;6658;53.080;7.428;2023-02-28T07:17:51;7.07;;;6.27;;
13185;SDS011;6658;53.080;7.428;2023-02-28T07:20:17;7.20;;;6.50;;
13185;SDS011;6658;53.080;7.428;2023-02-28T07:22:43;6.97;;;6.20;;
13185;SDS011;6658;53.080;7.428;2023-02-28T07:25:09;9.27;;;6.73;;
13185;SDS011;6658;53.080;7.428;2023-02-28T07:27:35;8.40;;;6.73;;
13185;SDS011;6658;53.080;7.428;2023-02-28T07:30:01;6.57;;;5.97;;
13185;SDS011;6658;53.080;7.428;2023-02-28T07:32:28;7.73;;;6.20;;
13185;SDS011;6658;53.080;7.428;2023-02-28T07:34:54;6.70;;;5.73;;
13185;SDS011;6658;53.080;7.428;2023-02-28T07:37:20;7.13;;;6.00;;
13185;SDS011;6658;53.080;7.428;2023-02-28T07:39:45;7.30;;;6.00;;
13185;SDS011;6658;53.080;7.428;2023-02-28T07:42:11;7.37;;;6.40;;
13185;SDS011;6658;53.080;7.428;2023-02-28T07:44:40;7.33;;;5.53;;
13185;SDS011;6658;53.080;7.428;2023-02-28T07:47:07;6.80;;;6.00;;
13185;SDS011;6658;53.080;7.428;2023-02-28T07:49:35;6.30;;;5.63;;
13185;SDS011;6658;53.080;7.428;2023-02-28T07:52:02;7.87;;;6.17;;
13185;SDS011;6658;53.080;7.428;2023-02-28T07:54:31;8.93;;;6.80;;
13185;SDS011;6658;53.080;7.428;2023-02-28T07:56:57;7.67;;;6.53;;
13185;SDS011;6658;53.080;7.428;2023-02-28T07:59:23;7.87;;;7.07;;
13185;SDS011;6658;53.080;7.428;2023-02-28T08:01:49;7.73;;;6.87;;
13185;SDS011;6658;53.080;7.428;2023-02-28T08:04:16;7.53;;;6.83;;
13185;SDS011;6658;53.080;7.428;2023-02-28T08:06:42;7.47;;;6.57;;
13185;SDS011;6658;53.080;7.428;2023-02-28T08:09:08;6.30;;;5.70;;
13185;SDS011;6658;53.080;7.428;2023-02-28T08:11:34;7.70;;;7.00;;
13185;SDS011;6658;53.080;7.428;2023-02-28T08:14:00;7.60;;;6.80;;
13185;SDS011;6658;53.080;7.428;2023-02-28T08:16:25;6.87;;;6.17;;
13185;SDS011;6658;53.080;7.428;2023-02-28T08:18:51;6.77;;;6.17;;
13185;SDS011;6658;53.080;7.428;2023-02-28T08:21:18;6.87;;;6.27;;
13185;SDS011;6658;53.080;7.428;2023-02-28T08:23:46;8.77;;;6.10;;
13185;SDS011;6658;53.080;7.428;2023-02-28T08:26:13;7.33;;;6.20;;
13185;SDS011;6658;53.080;7.428;2023-02-28T08:28:39;7.23;;;6.13;;
13185;SDS011;6658;53.080;7.428;2023-02-28T08:31:12;6.30;;;5.70;;
13185;SDS011;6658;53.080;7.428;2023-02-28T08:33:39;7.03;;;6.37;;
13185;SDS011;6658;53.080;7.428;2023-02-28T08:36:06;6.27;;;5.50;;
13185;SDS011;6658;53.080;7.428;2023-02-28T08:38:33;7.23;;;6.53;;
13185;SDS011;6658;53.080;7.428;2023-02-28T08:41:00;8.00;;;5.70;;
13185;SDS011;6658;53.080;7.428;2023-02-28T08:43:32;7.07;;;6.37;;
13185;SDS011;6658;53.080;7.428;2023-02-28T08:45:58;10.17;;;6.70;;
13185;SDS011;6658;53.080;7.428;2023-02-28T08:48:25;7.13;;;6.10;;
13185;SDS011;6658;53.080;7.428;2023-02-28T08:53:24;6.73;;;6.13;;
13185;SDS011;6658;53.080;7.428;2023-02-28T08:56:00;6.23;;;5.63;;
13185;SDS011;6658;53.080;7.428;2023-02-28T08:58:30;6.93;;;5.67;;
13185;SDS011;6658;53.080;7.428;2023-02-28T09:00:56;8.67;;;6.47;;
13185;SDS011;6658;53.080;7.428;2023-02-28T09:03:22;6.90;;;6.17;;
13185;SDS011;6658;53.080;7.428;2023-02-28T09:05:52;6.90;;;6.27;;
13185;SDS011;6658;53.080;7.428;2023-02-28T09:08:23;8.93;;;6.70;;
13185;SDS011;6658;53.080;7.428;2023-02-28T09:10:50;8.40;;;6.43;;
13185;SDS011;6658;53.080;7.428;2023-02-28T09:13:17;6.80;;;6.10;;
13185;SDS011;6658;53.080;7.428;2023-02-28T09:15:43;8.37;;;6.87;;
13185;SDS011;6658;53.080;7.428;2023-02-28T09:18:09;8.83;;;7.17;;
13185;SDS011;6658;53.080;7.428;2023-02-28T09:20:37;7.33;;;6.13;;
13185;SDS011;6658;53.080;7.428;2023-02-28T09:23:04;7.17;;;6.47;;
13185;SDS011;6658;53.080;7.428;2023-02-28T09:25:31;5.60;;;5.00;;
13185;SDS011;6658;53.080;7.428;2023-02-28T09:27:56;6.40;;;5.80;;
13185;SDS011;6658;53.080;7.428;2023-02-28T09:30:22;5.80;;;4.90;;
13185;SDS011;6658;53.080;7.428;2023-02-28T09:32:48;5.70;;;5.10;;
13185;SDS011;6658;53.080;7.428;2023-02-28T09:35:23;5.77;;;5.27;;
13185;SDS011;6658;53.080;7.428;2023-02-28T09:37:50;7.97;;;6.33;;
13185;SDS011;6658;53.080;7.428;2023-02-28T09:40:22;6.77;;;4.87;;
13185;SDS011;6658;53.080;7.428;2023-02-28T09:42:51;4.13;;;3.73;;
13185;SDS011;6658;53.080;7.428;2023-02-28T09:47:56;3.53;;;3.23;;
13185;SDS011;6658;53.080;7.428;2023-02-28T09:50:50;5.10;;;3.80;;
13185;SDS011;6658;53.080;7.428;2023-02-28T09:56:42;4.80;;;3.20;;
13185;SDS011;6658;53.080;7.428;2023-02-28T10:04:46;4.50;;;4.07;;
13185;SDS011;6658;53.080;7.428;2023-02-28T10:10:02;6.43;;;3.90;;
13185;SDS011;6658;53.080;7.428;2023-02-28T10:12:37;4.47;;;3.60;;
13185;SDS011;6658;53.080;7.428;2023-02-28T10:15:07;3.40;;;3.10;;
13185;SDS011;6658;53.080;7.428;2023-02-28T10:17:40;3.57;;;2.90;;
13185;SDS011;6658;53.080;7.428;2023-02-28T10:20:11;4.00;;;2.70;;
13185;SDS011;6658;53.080;7.428;2023-02-28T10:25:33;4.40;;;2.63;;
13185;SDS011;6658;53.080;7.428;2023-02-28T10:28:04;4.70;;;2.70;;
13185;SDS011;6658;53.080;7.428;2023-02-28T10:30:38;3.77;;;2.47;;
13185;SDS011;6658;53.080;7.428;2023-02-28T10:33:24;3.37;;;2.63;;
13185;SDS011;6658;53.080;7.428;2023-02-28T10:35:53;2.67;;;2.47;;
13185;SDS011;6658;53.080;7.428;2023-02-28T10:38:21;2.90;;;2.23;;
13185;SDS011;6658;53.080;7.428;2023-02-28T10:40:49;3.07;;;2.27;;
13185;SDS011;6658;53.080;7.428;2023-02-28T10:45:54;4.63;;;2.60;;
13185;SDS011;6658;53.080;7.428;2023-02-28T10:48:27;2.90;;;2.60;;
13185;SDS011;6658;53.080;7.428;2023-02-28T10:50:56;3.60;;;2.40;;
13185;SDS011;6658;53.080;7.428;2023-02-28T11:03:55;3.07;;;2.10;;
13185;SDS011;6658;53.080;7.428;2023-02-28T11:06:26;2.20;;;2.00;;
13185;SDS011;6658;53.080;7.428;2023-02-28T11:08:56;2.10;;;2.00;;
13185;SDS011;6658;53.080;7.428;2023-02-28T11:11:25;2.80;;;2.07;;
13185;SDS011;6658;53.080;7.428;2023-02-28T11:13:53;2.40;;;2.20;;
13185;SDS011;6658;53.080;7.428;2023-02-28T11:16:21;2.57;;;2.37;;
13185;SDS011;6658;53.080;7.428;2023-02-28T11:18:57;2.10;;;1.87;;
13185;SDS011;6658;53.080;7.428;2023-02-28T11:23:55;3.33;;;2.20;;
13185;SDS011;6658;53.080;7.428;2023-02-28T11:26:35;2.00;;;1.37;;
13185;SDS011;6658;53.080;7.428;2023-02-28T11:29:27;1.57;;;1.40;;
13185;SDS011;6658;53.080;7.428;2023-02-28T11:34:42;2.20;;;1.60;;
13185;SDS011;6658;53.080;7.428;2023-02-28T11:37:11;1.93;;;1.63;;
13185;SDS011;6658;53.080;7.428;2023-02-28T11:39:42;1.60;;;1.50;;
13185;SDS011;6658;53.080;7.428;2023-02-28T11:47:56;2.67;;;1.70;;
13185;SDS011;6658;53.080;7.428;2023-02-28T11:53:17;1.60;;;1.50;;
13185;SDS011;6658;53.080;7.428;2023-02-28T11:56:15;1.90;;;1.40;;
13185;SDS011;6658;53.080;7.428;2023-02-28T12:26:34;1.73;;;1.60;;
13185;SDS011;6658;53.080;7.428;2023-02-28T12:29:15;3.23;;;1.60;;
13185;SDS011;6658;53.080;7.428;2023-02-28T12:31:50;1.70;;;1.60;;
13185;SDS011;6658;53.080;7.428;2023-02-28T12:34:32;2.17;;;1.20;;
13185;SDS011;6658;53.080;7.428;2023-02-28T12:37:04;1.60;;;1.50;;
13185;SDS011;6658;53.080;7.428;2023-02-28T12:39:40;3.00;;;1.33;;
13185;SDS011;6658;53.080;7.428;2023-02-28T12:42:10;1.93;;;1.30;;
13185;SDS011;6658;53.080;7.428;2023-02-28T12:45:02;2.00;;;1.40;;
13185;SDS011;6658;53.080;7.428;2023-02-28T12:47:35;2.07;;;1.40;;
13185;SDS011;6658;53.080;7.428;2023-02-28T12:50:06;1.87;;;1.23;;
13185;SDS011;6658;53.080;7.428;2023-02-28T12:55:25;1.70;;;1.27;;
13185;SDS011;6658;53.080;7.428;2023-02-28T12:58:17;1.83;;;1.50;;
13185;SDS011;6658;53.080;7.428;2023-02-28T13:09:33;1.53;;;1.20;;
13185;SDS011;6658;53.080;7.428;2023-02-28T13:11:59;1.53;;;1.23;;
13185;SDS011;6658;53.080;7.428;2023-02-28T13:14:28;1.50;;;1.40;;
13185;SDS011;6658;53.080;7.428;2023-02-28T13:19:34;1.83;;;1.53;;
13185;SDS011;6658;53.080;7.428;2023-02-28T13:22:03;2.00;;;1.47;;
13185;SDS011;6658;53.080;7.428;2023-02-28T13:29:37;1.30;;;1.20;;
13185;SDS011;6658;53.080;7.428;2023-02-28T13:40:06;2.03;;;1.73;;
13185;SDS011;6658;53.080;7.428;2023-02-28T13:47:39;1.50;;;1.27;;
13185;SDS011;6658;53.080;7.428;2023-02-28T13:55:46;2.27;;;1.73;;
13185;SDS011;6658;53.080;7.428;2023-02-28T14:03:48;2.10;;;1.43;;
13185;SDS011;6658;53.080;7.428;2023-02-28T14:08:53;1.33;;;1.23;;
13185;SDS011;6658;53.080;7.428;2023-02-28T14:13:58;2.03;;;1.60;;
13185;SDS011;6658;53.080;7.428;2023-02-28T14:16:25;1.77;;;1.30;;
13185;SDS011;6658;53.080;7.428;2023-02-28T14:19:10;1.53;;;1.43;;
13185;SDS011;6658;53.080;7.428;2023-02-28T14:21:38;2.00;;;1.90;;
13185;SDS011;6658;53.080;7.428;2023-02-28T14:37:50;1.63;;;1.50;;
13185;SDS011;6658;53.080;7.428;2023-02-28T14:40:22;2.77;;;1.50;;
13185;SDS011;6658;53.080;7.428;2023-02-28T14:42:58;2.13;;;1.37;;
13185;SDS011;6658;53.080;7.428;2023-02-28T14:45:32;4.40;;;1.57;;
13185;SDS011;6658;53.080;7.428;2023-02-28T14:48:01;1.63;;;1.53;;
13185;SDS011;6658;53.080;7.428;2023-02-28T14:50:30;1.63;;;1.50;;
13185;SDS011;6658;53.080;7.428;2023-02-28T14:52:59;3.50;;;1.90;;
13185;SDS011;6658;53.080;7.428;2023-02-28T14:55:29;1.57;;;1.40;;
13185;SDS011;6658;53.080;7.428;2023-02-28T14:57:57;2.30;;;1.80;;
13185;SDS011;6658;53.080;7.428;2023-02-28T15:00:46;3.53;;;1.80;;
13185;SDS011;6658;53.080;7.428;2023-02-28T15:03:23;1.37;;;1.27;;
13185;SDS011;6658;53.080;7.428;2023-02-28T15:05:59;2.33;;;1.60;;
13185;SDS011;6658;53.080;7.428;2023-02-28T15:08:27;1.57;;;1.47;;
13185;SDS011;6658;53.080;7.428;2023-02-28T15:13:28;3.10;;;1.50;;
13185;SDS011;6658;53.080;7.428;2023-02-28T15:16:04;1.60;;;1.50;;
13185;SDS011;6658;53.080;7.428;2023-02-28T15:18:49;3.17;;;2.33;;
13185;SDS011;6658;53.080;7.428;2023-02-28T15:21:34;2.17;;;1.50;;
13185;SDS011;6658;53.080;7.428;2023-02-28T15:26:59;3.13;;;1.80;;
13185;SDS011;6658;53.080;7.428;2023-02-28T15:29:32;1.73;;;1.50;;
13185;SDS011;6658;53.080;7.428;2023-02-28T15:32:07;2.20;;;1.70;;
13185;SDS011;6658;53.080;7.428;2023-02-28T15:34:44;2.70;;;1.80;;
13185;SDS011;6658;53.080;7.428;2023-02-28T15:37:29;1.93;;;1.70;;
13185;SDS011;6658;53.080;7.428;2023-02-28T15:40:16;3.20;;;2.07;;
13185;SDS011;6658;53.080;7.428;2023-02-28T15:46:06;1.63;;;1.50;;
13185;SDS011;6658;53.080;7.428;2023-02-28T15:56:29;1.60;;;1.50;;
13185;SDS011;6658;53.080;7.428;2023-02-28T15:59:04;3.63;;;1.60;;
13185;SDS011;6658;53.080;7.428;2023-02-28T16:01:33;1.93;;;1.57;;
13185;SDS011;6658;53.080;7.428;2023-02-28T16:04:04;1.97;;;1.63;;
13185;SDS011;6658;53.080;7.428;2023-02-28T16:06:33;3.63;;;1.97;;
13185;SDS011;6658;53.080;7.428;2023-02-28T16:09:05;2.00;;;1.63;;
13185;SDS011;6658;53.080;7.428;2023-02-28T16:11:34;2.20;;;1.63;;
13185;SDS011;6658;53.080;7.428;2023-02-28T16:14:03;1.63;;;1.53;;
13185;SDS011;6658;53.080;7.428;2023-02-28T16:16:29;2.30;;;2.10;;
13185;SDS011;6658;53.080;7.428;2023-02-28T16:18:57;4.57;;;2.10;;
13185;SDS011;6658;53.080;7.428;2023-02-28T16:21:23;3.87;;;1.87;;
13185;SDS011;6658;53.080;7.428;2023-02-28T16:23:50;1.87;;;1.70;;
13185;SDS011;6658;53.080;7.428;2023-02-28T16:26:18;3.47;;;1.80;;
13185;SDS011;6658;53.080;7.428;2023-02-28T16:28:46;4.00;;;2.00;;
13185;SDS011;6658;53.080;7.428;2023-02-28T16:31:12;2.03;;;1.83;;
13185;SDS011;6658;53.080;7.428;2023-02-28T16:33:42;2.60;;;2.10;;
13185;SDS011;6658;53.080;7.428;2023-02-28T16:36:12;2.00;;;1.83;;
13185;SDS011;6658;53.080;7.428;2023-02-28T16:38:46;2.00;;;1.80;;
13185;SDS011;6658;53.080;7.428;2023-02-28T16:41:12;2.27;;;1.70;;
13185;SDS011;6658;53.080;7.428;2023-02-28T16:43:44;2.37;;;1.70;;
13185;SDS011;6658;53.080;7.428;2023-02-28T16:46:12;1.67;;;1.57;;
13185;SDS011;6658;53.080;7.428;2023-02-28T16:48:38;3.20;;;1.90;;
13185;SDS011;6658;53.080;7.428;2023-02-28T16:51:05;3.67;;;1.90;;
13185;SDS011;6658;53.080;7.428;2023-02-28T16:53:37;2.47;;;2.20;;
13185;SDS011;6658;53.080;7.428;2023-02-28T16:56:03;5.03;;;2.43;;
13185;SDS011;6658;53.080;7.428;2023-02-28T16:58:31;2.40;;;2.00;;
13185;SDS011;6658;53.080;7.428;2023-02-28T17:01:00;4.67;;;2.10;;
13185;SDS011;6658;53.080;7.428;2023-02-28T17:03:29;3.37;;;2.20;;
13185;SDS011;6658;53.080;7.428;2023-02-28T17:05:55;3.27;;;2.47;;
13185;SDS011;6658;53.080;7.428;2023-02-28T17:08:20;4.07;;;2.73;;
13185;SDS011;6658;53.080;7.428;2023-02-28T17:10:46;3.23;;;2.70;;
13185;SDS011;6658;53.080;7.428;2023-02-28T17:13:12;5.63;;;2.70;;
13185;SDS011;6658;53.080;7.428;2023-02-28T17:15:37;5.57;;;3.17;;
13185;SDS011;6658;53.080;7.428;2023-02-28T17:18:04;6.07;;;4.07;;
13185;SDS011;6658;53.080;7.428;2023-02-28T17:20:30;6.17;;;4.93;;
13185;SDS011;6658;53.080;7.428;2023-02-28T17:22:56;7.43;;;4.67;;
13185;SDS011;6658;53.080;7.428;2023-02-28T17:25:23;5.53;;;4.03;;
13185;SDS011;6658;53.080;7.428;2023-02-28T17:27:49;8.07;;;3.90;;
13185;SDS011;6658;53.080;7.428;2023-02-28T17:32:46;4.67;;;4.27;;
13185;SDS011;6658;53.080;7.428;2023-02-28T17:35:12;3.83;;;3.30;;
13185;SDS011;6658;53.080;7.428;2023-02-28T17:37:38;3.20;;;2.90;;
13185;SDS011;6658;53.080;7.428;2023-02-28T17:40:04;5.83;;;2.67;;
13185;SDS011;6658;53.080;7.428;2023-02-28T17:42:30;3.17;;;2.70;;
13185;SDS011;6658;53.080;7.428;2023-02-28T17:44:56;3.07;;;2.60;;
13185;SDS011;6658;53.080;7.428;2023-02-28T17:47:22;4.23;;;2.97;;
13185;SDS011;6658;53.080;7.428;2023-02-28T17:49:47;5.00;;;3.27;;
13185;SDS011;6658;53.080;7.428;2023-02-28T17:52:13;4.87;;;3.50;;
13185;SDS011;6658;53.080;7.428;2023-02-28T17:54:39;3.47;;;3.17;;
13185;SDS011;6658;53.080;7.428;2023-02-28T17:57:04;3.30;;;2.40;;
13185;SDS011;6658;53.080;7.428;2023-02-28T17:59:30;3.50;;;2.70;;
13185;SDS011;6658;53.080;7.428;2023-02-28T18:02:01;4.00;;;3.27;;
13185;SDS011;6658;53.080;7.428;2023-02-28T18:04:28;5.77;;;3.20;;
13185;SDS011;6658;53.080;7.428;2023-02-28T18:06:54;3.03;;;2.73;;
13185;SDS011;6658;53.080;7.428;2023-02-28T18:09:25;4.17;;;2.93;;
13185;SDS011;6658;53.080;7.428;2023-02-28T18:11:52;5.07;;;3.30;;
13185;SDS011;6658;53.080;7.428;2023-02-28T18:14:19;6.20;;;3.70;;
13185;SDS011;6658;53.080;7.428;2023-02-28T18:16:47;4.30;;;3.90;;
13185;SDS011;6658;53.080;7.428;2023-02-28T18:19:13;7.23;;;4.27;;
13185;SDS011;6658;53.080;7.428;2023-02-28T18:21:41;4.17;;;3.77;;
13185;SDS011;6658;53.080;7.428;2023-02-28T18:24:07;5.70;;;4.33;;
13185;SDS011;6658;53.080;7.428;2023-02-28T18:26:33;5.13;;;4.30;;
13185;SDS011;6658;53.080;7.428;2023-02-28T18:29:00;5.07;;;4.57;;
13185;SDS011;6658;53.080;7.428;2023-02-28T18:31:26;6.67;;;5.17;;
13185;SDS011;6658;53.080;7.428;2023-02-28T18:33:52;6.43;;;5.10;;
13185;SDS011;6658;53.080;7.428;2023-02-28T18:36:18;7.67;;;5.90;;